sensor_id;sensor_type;location;lat;lon;timestamp;pressure;altitude;pressure_sealevel;temperature;humidity
14232;BME280;7200;52.194;9.900;2023-02-02T00:00:58;99893.47;;;5.11;100.00
14232;BME280;7200;52.194;9.900;2023-02-02T00:03:23;99892.38;;;5.21;100.00
14232;BME280;7200;52.194;9.900;2023-02-02T00:05:51;99898.34;;;5.26;100.00
14232;BME280;7200;52.194;9.900;2023-02-02T00:08:17;99881.06;;;5.20;100.00
14232;BME280;7200;52.194;9.900;2023-02-02T00:10:43;99879.25;;;5.22;100.00
14232;BME280;7200;52.194;9.900;2023-02-02T00:13:10;99876.00;;;5.13;100.00
14232;BME280;7200;52.194;9.900;2023-02-02T00:15:35;99892.38;;;5.21;100.00
14232;BME280;7200;52.194;9.900;2023-02-02T00:18:00;99849.06;;;5.09;100.00
14232;BME280;7200;52.194;9.900;2023-02-02T00:20:26;99882.09;;;5.13;100.00
14232;BME280;7200;52.194;9.900;2023-02-02T00:22:51;99891.59;;;5.16;100.00
14232;BME280;7200;52.194;9.900;2023-02-02T00:25:17;99882.22;;;5.07;100.00
14232;BME280;7200;52.194;9.900;2023-02-02T00:27:43;99882.44;;;4.98;100.00
14232;BME280;7200;52.194;9.900;2023-02-02T00:30:08;99903.81;;;5.15;100.00
14232;BME280;7200;52.194;9.900;2023-02-02T00:32:34;99901.97;;;5.20;100.00
14232;BME280;7200;52.194;9.900;2023-02-02T00:34:59;99896.81;;;5.17;100.00
14232;BME280;7200;52.194;9.900;2023-02-02T00:37:24;99904.75;;;5.14;100.00
14232;BME280;7200;52.194;9.900;2023-02-02T00:39:50;99897.09;;;5.05;100.00
14232;BME280;7200;52.194;9.900;2023-02-02T00:42:16;99905.75;;;5.09;100.00
14232;BME280;7200;52.194;9.900;2023-02-02T00:44:41;99931.63;;;5.19;100.00
14232;BME280;7200;52.194;9.900;2023-02-02T00:47:25;99905.41;;;5.22;100.00
14232;BME280;7200;52.194;9.900;2023-02-02T00:49:51;99953.31;;;5.24;100.00
14232;BME280;7200;52.194;9.900;2023-02-02T00:52:16;99934.78;;;5.35;100.00
14232;BME280;7200;52.194;9.900;2023-02-02T00:54:41;99908.84;;;5.24;100.00
14232;BME280;7200;52.194;9.900;2023-02-02T00:57:11;99930.47;;;5.31;100.00
14232;BME280;7200;52.194;9.900;2023-02-02T00:59:36;99932.28;;;5.29;100.00
14232;BME280;7200;52.194;9.900;2023-02-02T01:02:02;99925.31;;;5.30;100.00
14232;BME280;7200;52.194;9.900;2023-02-02T01:04:27;99944.50;;;5.29;100.00
14232;BME280;7200;52.194;9.900;2023-02-02T01:06:52;99934.00;;;5.30;100.00
14232;BME280;7200;52.194;9.900;2023-02-02T01:09:17;99934.06;;;5.27;100.00
14232;BME280;7200;52.194;9.900;2023-02-02T01:11:43;99930.59;;;5.26;100.00
14232;BME280;7200;52.194;9.900;2023-02-02T01:14:08;99933.16;;;5.30;100.00
14232;BME280;7200;52.194;9.900;2023-02-02T01:16:33;99943.44;;;5.37;100.00
14232;BME280;7200;52.194;9.900;2023-02-02T01:18:58;99933.84;;;5.36;100.00
14232;BME280;7200;52.194;9.900;2023-02-02T01:21:24;99917.75;;;5.16;100.00
14232;BME280;7200;52.194;9.900;2023-02-02T01:23:49;99907.28;;;5.16;100.00
14232;BME280;7200;52.194;9.900;2023-02-02T01:26:15;99901.25;;;5.14;100.00
14232;BME280;7200;52.194;9.900;2023-02-02T01:28:41;99920.53;;;5.08;100.00
14232;BME280;7200;52.194;9.900;2023-02-02T01:31:11;99903.84;;;5.14;100.00
14232;BME280;7200;52.194;9.900;2023-02-02T01:33:37;99906.50;;;5.12;100.00
14232;BME280;7200;52.194;9.900;2023-02-02T01:36:05;99926.56;;;5.12;100.00
14232;BME280;7200;52.194;9.900;2023-02-02T01:38:31;99937.59;;;5.26;100.00
14232;BME280;7200;52.194;9.900;2023-02-02T01:40:58;99929.81;;;5.23;100.00
14232;BME280;7200;52.194;9.900;2023-02-02T01:43:29;99935.78;;;5.28;100.00
14232;BME280;7200;52.194;9.900;2023-02-02T01:45:56;99946.88;;;5.39;100.00
14232;BME280;7200;52.194;9.900;2023-02-02T01:48:26;99934.88;;;5.29;100.00
14232;BME280;7200;52.194;9.900;2023-02-02T01:50:55;99929.72;;;5.28;100.00
14232;BME280;7200;52.194;9.900;2023-02-02T01:53:21;99940.09;;;5.31;100.00
14232;BME280;7200;52.194;9.900;2023-02-02T01:55:48;99914.09;;;5.24;100.00
14232;BME280;7200;52.194;9.900;2023-02-02T01:58:21;99903.16;;;5.07;100.00
14232;BME280;7200;52.194;9.900;2023-02-02T02:00:48;99922.19;;;5.12;100.00
14232;BME280;7200;52.194;9.900;2023-02-02T02:03:16;99918.69;;;5.13;100.00
14232;BME280;7200;52.194;9.900;2023-02-02T02:06:00;99968.00;;;5.30;100.00
14232;BME280;7200;52.194;9.900;2023-02-02T02:08:34;99947.19;;;5.25;100.00
14232;BME280;7200;52.194;9.900;2023-02-02T02:11:00;99973.25;;;5.30;100.00
14232;BME280;7200;52.194;9.900;2023-02-02T02:13:26;99956.06;;;5.18;100.00
14232;BME280;7200;52.194;9.900;2023-02-02T02:25:12;99989.03;;;5.25;100.00
14232;BME280;7200;52.194;9.900;2023-02-02T02:31:01;99999.22;;;5.38;100.00
14232;BME280;7200;52.194;9.900;2023-02-02T02:33:37;99976.00;;;5.24;100.00
14232;BME280;7200;52.194;9.900;2023-02-02T02:36:18;99957.56;;;5.29;100.00
14232;BME280;7200;52.194;9.900;2023-02-02T02:38:51;99966.50;;;5.20;100.00
14232;BME280;7200;52.194;9.900;2023-02-02T02:41:22;99987.16;;;5.31;100.00
14232;BME280;7200;52.194;9.900;2023-02-02T02:43:56;99990.63;;;5.31;100.00
14232;BME280;7200;52.194;9.900;2023-02-02T02:46:23;99968.31;;;5.16;100.00
14232;BME280;7200;52.194;9.900;2023-02-02T02:48:49;99982.97;;;5.23;100.00
14232;BME280;7200;52.194;9.900;2023-02-02T02:54:05;99984.81;;;5.20;100.00
14232;BME280;7200;52.194;9.900;2023-02-02T02:56:39;99990.81;;;5.23;100.00
14232;BME280;7200;52.194;9.900;2023-02-02T02:59:11;99979.63;;;5.17;100.00
14232;BME280;7200;52.194;9.900;2023-02-02T03:04:24;99993.59;;;5.16;100.00
14232;BME280;7200;52.194;9.900;2023-02-02T03:06:57;100004.78;;;5.22;100.00
14232;BME280;7200;52.194;9.900;2023-02-02T03:09:28;99985.69;;;5.19;100.00
14232;BME280;7200;52.194;9.900;2023-02-02T03:11:56;100000.38;;;5.24;100.00
14232;BME280;7200;52.194;9.900;2023-02-02T03:14:22;99984.88;;;5.17;100.00
14232;BME280;7200;52.194;9.900;2023-02-02T03:16:50;100052.75;;;5.21;100.00
14232;BME280;7200;52.194;9.900;2023-02-02T03:19:15;100020.22;;;5.35;100.00
14232;BME280;7200;52.194;9.900;2023-02-02T03:24:21;100000.34;;;5.28;100.00
14232;BME280;7200;52.194;9.900;2023-02-02T03:26:46;100006.50;;;5.23;100.00
14232;BME280;7200;52.194;9.900;2023-02-02T03:29:12;99999.66;;;5.18;100.00
14232;BME280;7200;52.194;9.900;2023-02-02T03:31:37;100039.44;;;5.34;100.00
14232;BME280;7200;52.194;9.900;2023-02-02T03:34:03;100035.91;;;5.35;100.00
14232;BME280;7200;52.194;9.900;2023-02-02T03:36:28;100039.41;;;5.35;100.00
14232;BME280;7200;52.194;9.900;2023-02-02T03:38:54;100046.34;;;5.36;100.00
14232;BME280;7200;52.194;9.900;2023-02-02T03:41:19;100064.47;;;5.45;100.00
14232;BME280;7200;52.194;9.900;2023-02-02T03:43:44;100048.16;;;5.33;100.00
14232;BME280;7200;52.194;9.900;2023-02-02T03:46:10;100036.22;;;5.19;100.00
14232;BME280;7200;52.194;9.900;2023-02-02T03:48:36;100058.72;;;5.28;100.00
14232;BME280;7200;52.194;9.900;2023-02-02T03:51:13;100080.47;;;5.30;100.00
14232;BME280;7200;52.194;9.900;2023-02-02T03:53:39;100056.94;;;5.30;100.00
14232;BME280;7200;52.194;9.900;2023-02-02T03:56:08;100054.28;;;5.33;100.00
14232;BME280;7200;52.194;9.900;2023-02-02T03:58:34;100072.50;;;5.36;100.00
14232;BME280;7200;52.194;9.900;2023-02-02T04:01:09;100049.31;;;5.18;100.00
14232;BME280;7200;52.194;9.900;2023-02-02T04:03:35;100049.47;;;5.12;100.00
14232;BME280;7200;52.194;9.900;2023-02-02T04:06:01;100070.31;;;5.16;100.00
14232;BME280;7200;52.194;9.900;2023-02-02T04:08:26;100077.19;;;5.20;100.00
14232;BME280;7200;52.194;9.900;2023-02-02T04:10:52;100074.78;;;5.10;100.00
14232;BME280;7200;52.194;9.900;2023-02-02T04:13:18;100106.75;;;5.24;100.00
14232;BME280;7200;52.194;9.900;2023-02-02T04:15:43;100121.56;;;5.25;100.00
14232;BME280;7200;52.194;9.900;2023-02-02T04:18:08;100119.91;;;5.21;100.00
14232;BME280;7200;52.194;9.900;2023-02-02T04:20:33;100138.84;;;5.32;100.00
14232;BME280;7200;52.194;9.900;2023-02-02T04:22:59;100128.53;;;5.24;100.00
14232;BME280;7200;52.194;9.900;2023-02-02T04:25:24;100144.09;;;5.32;100.00
14232;BME280;7200;52.194;9.900;2023-02-02T04:27:50;100168.31;;;5.40;100.00
14232;BME280;7200;52.194;9.900;2023-02-02T04:30:15;100159.78;;;5.32;100.00
14232;BME280;7200;52.194;9.900;2023-02-02T04:32:40;100178.78;;;5.42;100.00
14232;BME280;7200;52.194;9.900;2023-02-02T04:35:06;100158.84;;;5.35;100.00
14232;BME280;7200;52.194;9.900;2023-02-02T04:37:32;100210.97;;;5.45;100.00
14232;BME280;7200;52.194;9.900;2023-02-02T04:39:58;100189.16;;;5.46;100.00
14232;BME280;7200;52.194;9.900;2023-02-02T04:42:23;100184.03;;;5.40;100.00
14232;BME280;7200;52.194;9.900;2023-02-02T04:44:49;100182.34;;;5.38;100.00
14232;BME280;7200;52.194;9.900;2023-02-02T04:47:14;100187.59;;;5.36;100.00
14232;BME280;7200;52.194;9.900;2023-02-02T04:49:40;100218.75;;;5.50;100.00
14232;BME280;7200;52.194;9.900;2023-02-02T04:52:05;100195.41;;;5.39;100.00
14232;BME280;7200;52.194;9.900;2023-02-02T04:54:31;100191.13;;;5.35;100.00
14232;BME280;7200;52.194;9.900;2023-02-02T04:56:57;100169.56;;;5.22;100.00
14232;BME280;7200;52.194;9.900;2023-02-02T04:59:22;100192.13;;;5.28;100.00
14232;BME280;7200;52.194;9.900;2023-02-02T05:01:47;100184.44;;;5.19;100.00
14232;BME280;7200;52.194;9.900;2023-02-02T05:04:14;100188.00;;;5.16;100.00
14232;BME280;7200;52.194;9.900;2023-02-02T05:06:39;100187.09;;;5.17;100.00
14232;BME280;7200;52.194;9.900;2023-02-02T05:09:04;100188.88;;;5.14;100.00
14232;BME280;7200;52.194;9.900;2023-02-02T05:11:30;100203.72;;;5.13;100.00
14232;BME280;7200;52.194;9.900;2023-02-02T05:13:55;100224.50;;;5.21;100.00
14232;BME280;7200;52.194;9.900;2023-02-02T05:16:21;100233.31;;;5.15;100.00
14232;BME280;7200;52.194;9.900;2023-02-02T05:18:52;100196.88;;;5.06;100.00
14232;BME280;7200;52.194;9.900;2023-02-02T05:21:18;100205.50;;;5.11;100.00
14232;BME280;7200;52.194;9.900;2023-02-02T05:23:44;100210.75;;;5.11;100.00
14232;BME280;7200;52.194;9.900;2023-02-02T05:26:17;100224.66;;;5.13;100.00
14232;BME280;7200;52.194;9.900;2023-02-02T05:28:43;100209.81;;;5.12;100.00
14232;BME280;7200;52.194;9.900;2023-02-02T05:31:12;100228.06;;;5.17;100.00
14232;BME280;7200;52.194;9.900;2023-02-02T05:33:37;100244.56;;;5.20;100.00
14232;BME280;7200;52.194;9.900;2023-02-02T05:36:03;100243.66;;;5.23;100.00
14232;BME280;7200;52.194;9.900;2023-02-02T05:38:29;100214.91;;;5.21;100.00
14232;BME280;7200;52.194;9.900;2023-02-02T05:40:54;100214.97;;;5.18;100.00
14232;BME280;7200;52.194;9.900;2023-02-02T05:43:19;100211.63;;;5.10;100.00
14232;BME280;7200;52.194;9.900;2023-02-02T05:45:45;100243.63;;;5.24;100.00
14232;BME280;7200;52.194;9.900;2023-02-02T05:48:13;100244.56;;;5.22;100.00
14232;BME280;7200;52.194;9.900;2023-02-02T05:50:40;100238.38;;;5.26;100.00
14232;BME280;7200;52.194;9.900;2023-02-02T05:53:07;100230.53;;;5.26;100.00
14232;BME280;7200;52.194;9.900;2023-02-02T05:55:32;100226.41;;;5.13;100.00
14232;BME280;7200;52.194;9.900;2023-02-02T05:57:58;100242.00;;;5.17;100.00
14232;BME280;7200;52.194;9.900;2023-02-02T06:00:23;100262.06;;;5.17;100.00
14232;BME280;7200;52.194;9.900;2023-02-02T06:02:48;100258.50;;;5.21;100.00
14232;BME280;7200;52.194;9.900;2023-02-02T06:05:14;100266.31;;;5.24;100.00
14232;BME280;7200;52.194;9.900;2023-02-02T06:07:39;100246.41;;;5.15;100.00
14232;BME280;7200;52.194;9.900;2023-02-02T06:10:05;100258.69;;;5.10;100.00
14232;BME280;7200;52.194;9.900;2023-02-02T06:12:30;100246.69;;;4.98;100.00
14232;BME280;7200;52.194;9.900;2023-02-02T06:14:55;100263.28;;;4.97;100.00
14232;BME280;7200;52.194;9.900;2023-02-02T06:17:21;100253.00;;;4.85;100.00
14232;BME280;7200;52.194;9.900;2023-02-02T06:19:46;100277.25;;;4.95;100.00
14232;BME280;7200;52.194;9.900;2023-02-02T06:22:11;100283.31;;;4.95;100.00
14232;BME280;7200;52.194;9.900;2023-02-02T06:24:37;100293.78;;;4.95;100.00
14232;BME280;7200;52.194;9.900;2023-02-02T06:27:02;100302.56;;;4.91;100.00
14232;BME280;7200;52.194;9.900;2023-02-02T06:29:27;100309.44;;;4.97;100.00
14232;BME280;7200;52.194;9.900;2023-02-02T06:31:53;100313.00;;;4.93;100.00
14232;BME280;7200;52.194;9.900;2023-02-02T06:34:18;100319.09;;;4.93;100.00
14232;BME280;7200;52.194;9.900;2023-02-02T06:36:43;100329.53;;;4.93;100.00
14232;BME280;7200;52.194;9.900;2023-02-02T06:39:08;100336.53;;;4.93;100.00
14232;BME280;7200;52.194;9.900;2023-02-02T06:41:34;100366.84;;;5.06;100.00
14232;BME280;7200;52.194;9.900;2023-02-02T06:43:59;100371.00;;;5.19;100.00
14232;BME280;7200;52.194;9.900;2023-02-02T06:46:25;100357.06;;;5.19;100.00
14232;BME280;7200;52.194;9.900;2023-02-02T06:48:51;100314.78;;;4.89;100.00
14232;BME280;7200;52.194;9.900;2023-02-02T06:51:16;100358.88;;;5.12;100.00
14232;BME280;7200;52.194;9.900;2023-02-02T06:53:41;100375.22;;;5.28;100.00
14232;BME280;7200;52.194;9.900;2023-02-02T06:56:11;100389.84;;;5.41;100.00
14232;BME280;7200;52.194;9.900;2023-02-02T06:58:36;100364.41;;;5.48;100.00
14232;BME280;7200;52.194;9.900;2023-02-02T07:01:02;100352.63;;;5.24;100.00
14232;BME280;7200;52.194;9.900;2023-02-02T07:03:28;100334.56;;;5.09;100.00
14232;BME280;7200;52.194;9.900;2023-02-02T07:05:54;100357.03;;;5.22;100.00
14232;BME280;7200;52.194;9.900;2023-02-02T07:08:19;100337.19;;;5.09;100.00
14232;BME280;7200;52.194;9.900;2023-02-02T07:10:45;100352.78;;;5.13;100.00
14232;BME280;7200;52.194;9.900;2023-02-02T07:13:11;100345.06;;;5.04;100.00
14232;BME280;7200;52.194;9.900;2023-02-02T07:15:39;100386.53;;;5.29;100.00
14232;BME280;7200;52.194;9.900;2023-02-02T07:18:05;100405.53;;;5.41;100.00
14232;BME280;7200;52.194;9.900;2023-02-02T07:20:31;100401.13;;;5.43;100.00
14232;BME280;7200;52.194;9.900;2023-02-02T07:22:56;100388.16;;;5.39;100.00
14232;BME280;7200;52.194;9.900;2023-02-02T07:25:21;100397.69;;;5.40;100.00
14232;BME280;7200;52.194;9.900;2023-02-02T07:27:51;100408.13;;;5.43;100.00
14232;BME280;7200;52.194;9.900;2023-02-02T07:30:17;100402.09;;;5.39;100.00
14232;BME280;7200;52.194;9.900;2023-02-02T07:32:47;100412.53;;;5.39;100.00
14232;BME280;7200;52.194;9.900;2023-02-02T07:35:13;100435.06;;;5.48;100.00
14232;BME280;7200;52.194;9.900;2023-02-02T07:37:39;100420.44;;;5.36;100.00
14232;BME280;7200;52.194;9.900;2023-02-02T07:40:04;100417.81;;;5.36;100.00
14232;BME280;7200;52.194;9.900;2023-02-02T07:42:30;100425.66;;;5.36;100.00
14232;BME280;7200;52.194;9.900;2023-02-02T07:44:55;100467.28;;;5.53;100.00
14232;BME280;7200;52.194;9.900;2023-02-02T07:47:20;100452.44;;;5.54;100.00
14232;BME280;7200;52.194;9.900;2023-02-02T07:49:45;100449.75;;;5.60;100.00
14232;BME280;7200;52.194;9.900;2023-02-02T07:52:11;100443.75;;;5.52;100.00
14232;BME280;7200;52.194;9.900;2023-02-02T07:54:36;100449.88;;;5.51;100.00
14232;BME280;7200;52.194;9.900;2023-02-02T07:57:01;100454.13;;;5.58;100.00
14232;BME280;7200;52.194;9.900;2023-02-02T07:59:27;100446.34;;;5.53;100.00
14232;BME280;7200;52.194;9.900;2023-02-02T08:01:52;100468.94;;;5.57;100.00
14232;BME280;7200;52.194;9.900;2023-02-02T08:04:17;100470.75;;;5.54;100.00
14232;BME280;7200;52.194;9.900;2023-02-02T08:06:43;100479.38;;;5.60;100.00
14232;BME280;7200;52.194;9.900;2023-02-02T08:09:09;100477.69;;;5.58;100.00
14232;BME280;7200;52.194;9.900;2023-02-02T08:11:35;100495.78;;;5.73;100.00
14232;BME280;7200;52.194;9.900;2023-02-02T08:14:02;100485.28;;;5.73;100.00
14232;BME280;7200;52.194;9.900;2023-02-02T08:16:30;100502.56;;;5.83;100.00
14232;BME280;7200;52.194;9.900;2023-02-02T08:18:56;100503.38;;;5.89;100.00
14232;BME280;7200;52.194;9.900;2023-02-02T08:21:22;100494.69;;;5.85;100.00
14232;BME280;7200;52.194;9.900;2023-02-02T08:23:48;100489.59;;;5.77;100.00
14232;BME280;7200;52.194;9.900;2023-02-02T08:26:15;100506.00;;;5.89;100.00
14232;BME280;7200;52.194;9.900;2023-02-02T08:28:41;100506.00;;;5.89;100.00
14232;BME280;7200;52.194;9.900;2023-02-02T08:31:19;100505.13;;;5.90;100.00
14232;BME280;7200;52.194;9.900;2023-02-02T08:33:45;100518.88;;;6.02;100.00
14232;BME280;7200;52.194;9.900;2023-02-02T08:36:12;100529.22;;;6.12;100.00
14232;BME280;7200;52.194;9.900;2023-02-02T08:38:37;100521.28;;;6.18;100.00
14232;BME280;7200;52.194;9.900;2023-02-02T08:41:04;100514.28;;;6.18;100.00
14232;BME280;7200;52.194;9.900;2023-02-02T08:43:30;100503.84;;;6.15;100.00
14232;BME280;7200;52.194;9.900;2023-02-02T08:45:56;100495.09;;;6.18;100.00
14232;BME280;7200;52.194;9.900;2023-02-02T08:48:21;100493.38;;;6.14;100.00
14232;BME280;7200;52.194;9.900;2023-02-02T08:50:54;100468.22;;;6.05;100.00
14232;BME280;7200;52.194;9.900;2023-02-02T08:53:19;100491.44;;;6.25;100.00
14232;BME280;7200;52.194;9.900;2023-02-02T08:55:45;100477.63;;;6.17;100.00
14232;BME280;7200;52.194;9.900;2023-02-02T08:58:10;100473.31;;;6.14;100.00
14232;BME280;7200;52.194;9.900;2023-02-02T09:00:36;100458.59;;;6.06;100.00
14232;BME280;7200;52.194;9.900;2023-02-02T09:03:01;100466.47;;;6.06;100.00
14232;BME280;7200;52.194;9.900;2023-02-02T09:05:26;100463.00;;;6.03;100.00
14232;BME280;7200;52.194;9.900;2023-02-02T09:07:52;100469.00;;;6.10;100.00
14232;BME280;7200;52.194;9.900;2023-02-02T09:10:17;100460.34;;;6.07;100.00
14232;BME280;7200;52.194;9.900;2023-02-02T09:12:42;100430.94;;;5.88;100.00
14232;BME280;7200;52.194;9.900;2023-02-02T09:15:08;100489.06;;;6.11;100.00
14232;BME280;7200;52.194;9.900;2023-02-02T09:17:33;100452.66;;;5.94;100.00
14232;BME280;7200;52.194;9.900;2023-02-02T09:19:59;100467.34;;;6.04;100.00
14232;BME280;7200;52.194;9.900;2023-02-02T09:24:50;100482.13;;;6.09;100.00
14232;BME280;7200;52.194;9.900;2023-02-02T09:27:15;100514.94;;;6.30;100.00
14232;BME280;7200;52.194;9.900;2023-02-02T09:29:41;100500.25;;;6.21;100.00
14232;BME280;7200;52.194;9.900;2023-02-02T09:32:06;100479.47;;;6.10;100.00
14232;BME280;7200;52.194;9.900;2023-02-02T09:34:31;100485.50;;;6.15;100.00
14232;BME280;7200;52.194;9.900;2023-02-02T09:36:57;100490.75;;;6.15;100.00
14232;BME280;7200;52.194;9.900;2023-02-02T09:39:22;100507.13;;;6.28;100.00
14232;BME280;7200;52.194;9.900;2023-02-02T09:44:44;100470.88;;;6.02;100.00
14232;BME280;7200;52.194;9.900;2023-02-02T09:48:14;100496.97;;;6.08;100.00
14232;BME280;7200;52.194;9.900;2023-02-02T09:53:17;100527.50;;;6.11;100.00
14232;BME280;7200;52.194;9.900;2023-02-02T09:55:47;100545.59;;;6.24;100.00
14232;BME280;7200;52.194;9.900;2023-02-02T09:58:33;100537.78;;;6.21;100.00
14232;BME280;7200;52.194;9.900;2023-02-02T10:04:05;100551.63;;;6.30;100.00
14232;BME280;7200;52.194;9.900;2023-02-02T10:06:39;100561.97;;;6.39;100.00
14232;BME280;7200;52.194;9.900;2023-02-02T10:11:59;100559.25;;;6.43;100.00
14232;BME280;7200;52.194;9.900;2023-02-02T10:14:30;100544.50;;;6.36;100.00
14232;BME280;7200;52.194;9.900;2023-02-02T10:17:05;100553.19;;;6.40;100.00
14232;BME280;7200;52.194;9.900;2023-02-02T10:19:35;100535.06;;;6.28;100.00
14232;BME280;7200;52.194;9.900;2023-02-02T10:22:13;100546.41;;;6.30;100.00
14232;BME280;7200;52.194;9.900;2023-02-02T10:24:40;100560.38;;;6.27;100.00
14232;BME280;7200;52.194;9.900;2023-02-02T10:27:12;100560.34;;;6.32;100.00
14232;BME280;7200;52.194;9.900;2023-02-02T10:29:54;100584.44;;;6.54;100.00
14232;BME280;7200;52.194;9.900;2023-02-02T10:32:49;100538.56;;;6.28;100.00
14232;BME280;7200;52.194;9.900;2023-02-02T10:38:25;100569.88;;;6.34;100.00
14232;BME280;7200;52.194;9.900;2023-02-02T10:41:30;100560.38;;;6.27;100.00
14232;BME280;7200;52.194;9.900;2023-02-02T10:44:31;100561.31;;;6.26;100.00
14232;BME280;7200;52.194;9.900;2023-02-02T10:46:59;100570.88;;;6.27;100.00
14232;BME280;7200;52.194;9.900;2023-02-02T10:49:30;100589.91;;;6.38;100.00
14232;BME280;7200;52.194;9.900;2023-02-02T10:57:07;100590.69;;;6.45;100.00
14232;BME280;7200;52.194;9.900;2023-02-02T10:59:42;100620.91;;;6.66;100.00
14232;BME280;7200;52.194;9.900;2023-02-02T11:02:12;100578.25;;;6.56;100.00
14232;BME280;7200;52.194;9.900;2023-02-02T11:04:37;100562.72;;;6.44;100.00
14232;BME280;7200;52.194;9.900;2023-02-02T11:07:21;100572.25;;;6.50;100.00
14232;BME280;7200;52.194;9.900;2023-02-02T11:09:47;100585.19;;;6.59;100.00
14232;BME280;7200;52.194;9.900;2023-02-02T11:12:18;100604.28;;;6.67;100.00
14232;BME280;7200;52.194;9.900;2023-02-02T11:14:53;100606.91;;;6.67;100.00
14232;BME280;7200;52.194;9.900;2023-02-02T11:17:22;100604.28;;;6.67;100.00
14232;BME280;7200;52.194;9.900;2023-02-02T11:19:48;100621.44;;;6.85;100.00
14232;BME280;7200;52.194;9.900;2023-02-02T11:22:37;100607.72;;;6.71;100.00
14232;BME280;7200;52.194;9.900;2023-02-02T11:25:32;100595.47;;;6.71;100.00
14232;BME280;7200;52.194;9.900;2023-02-02T11:28:00;100591.19;;;6.66;100.00
14232;BME280;7200;52.194;9.900;2023-02-02T11:30:36;100592.16;;;6.61;100.00
14232;BME280;7200;52.194;9.900;2023-02-02T11:33:37;100586.16;;;6.53;100.00
14232;BME280;7200;52.194;9.900;2023-02-02T11:36:23;100621.69;;;6.71;100.00
14232;BME280;7200;52.194;9.900;2023-02-02T11:39:15;100601.81;;;6.59;100.00
14232;BME280;7200;52.194;9.900;2023-02-02T11:41:43;100606.13;;;6.62;100.00
14232;BME280;7200;52.194;9.900;2023-02-02T11:44:27;100620.91;;;6.66;100.00
14232;BME280;7200;52.194;9.900;2023-02-02T11:46:53;100608.75;;;6.60;100.00
14232;BME280;7200;52.194;9.900;2023-02-02T11:49:21;100604.47;;;6.56;100.00
14232;BME280;7200;52.194;9.900;2023-02-02T11:51:56;100593.25;;;6.48;100.00
14232;BME280;7200;52.194;9.900;2023-02-02T11:54:28;100602.84;;;6.49;100.00
14232;BME280;7200;52.194;9.900;2023-02-02T11:56:56;100626.13;;;6.66;100.00
14232;BME280;7200;52.194;9.900;2023-02-02T11:59:36;100631.19;;;6.78;100.00
14232;BME280;7200;52.194;9.900;2023-02-02T12:04:36;100594.53;;;6.75;100.00
14232;BME280;7200;52.194;9.900;2023-02-02T12:07:36;100602.41;;;6.74;100.00
14232;BME280;7200;52.194;9.900;2023-02-02T12:10:18;100596.47;;;6.64;100.00
14232;BME280;7200;52.194;9.900;2023-02-02T12:15:28;100594.78;;;6.61;100.00
14232;BME280;7200;52.194;9.900;2023-02-02T12:18:06;100603.38;;;6.68;100.00
14232;BME280;7200;52.194;9.900;2023-02-02T12:23:52;100620.84;;;6.71;100.00
14232;BME280;7200;52.194;9.900;2023-02-02T12:26:29;100630.44;;;6.70;100.00
14232;BME280;7200;52.194;9.900;2023-02-02T12:29:17;100649.41;;;6.86;100.00
14232;BME280;7200;52.194;9.900;2023-02-02T12:31:56;100655.50;;;6.87;100.00
14232;BME280;7200;52.194;9.900;2023-02-02T12:34:35;100632.06;;;6.77;100.00
14232;BME280;7200;52.194;9.900;2023-02-02T12:37:19;100630.34;;;6.76;100.00
14232;BME280;7200;52.194;9.900;2023-02-02T12:45:32;100653.72;;;6.89;100.00
14232;BME280;7200;52.194;9.900;2023-02-02T12:48:27;100650.13;;;6.93;100.00
14232;BME280;7200;52.194;9.900;2023-02-02T12:51:13;100659.59;;;7.03;100.00
14232;BME280;7200;52.194;9.900;2023-02-02T12:54:45;100619.03;;;6.74;100.00
14232;BME280;7200;52.194;9.900;2023-02-02T12:57:14;100660.44;;;7.04;100.00
14232;BME280;7200;52.194;9.900;2023-02-02T13:02:48;100645.59;;;7.02;100.00
14232;BME280;7200;52.194;9.900;2023-02-02T13:08:20;100626.53;;;6.93;100.00
14232;BME280;7200;52.194;9.900;2023-02-02T13:10:52;100629.22;;;6.90;100.00
14232;BME280;7200;52.194;9.900;2023-02-02T13:13:24;100616.97;;;6.90;100.00
14232;BME280;7200;52.194;9.900;2023-02-02T13:15:56;100616.03;;;6.93;100.00
14232;BME280;7200;52.194;9.900;2023-02-02T13:18:25;100616.13;;;6.90;100.00
14232;BME280;7200;52.194;9.900;2023-02-02T13:21:05;100605.59;;;6.91;100.00
14232;BME280;7200;52.194;9.900;2023-02-02T13:23:42;100621.06;;;7.05;100.00
14232;BME280;7200;52.194;9.900;2023-02-02T13:26:17;100621.06;;;7.07;100.00
14232;BME280;7200;52.194;9.900;2023-02-02T13:28:54;100624.44;;;7.12;100.00
14232;BME280;7200;52.194;9.900;2023-02-02T13:31:41;100607.94;;;7.07;100.00
14232;BME280;7200;52.194;9.900;2023-02-02T14:04:26;100605.06;;;7.19;100.00
14232;BME280;7200;52.194;9.900;2023-02-02T14:07:00;100634.53;;;7.33;100.00
14232;BME280;7200;52.194;9.900;2023-02-02T14:09:30;100626.66;;;7.33;100.00
14232;BME280;7200;52.194;9.900;2023-02-02T14:12:00;100632.63;;;7.40;100.00
14232;BME280;7200;52.194;9.900;2023-02-02T14:14:26;100608.41;;;7.27;100.00
14232;BME280;7200;52.194;9.900;2023-02-02T14:19:54;100634.22;;;7.49;100.00
14232;BME280;7200;52.194;9.900;2023-02-02T14:22:49;100649.84;;;7.55;100.00
14232;BME280;7200;52.194;9.900;2023-02-02T14:28:02;100585.38;;;7.40;100.00
14232;BME280;7200;52.194;9.900;2023-02-02T14:30:30;100584.66;;;7.33;100.00
14232;BME280;7200;52.194;9.900;2023-02-02T14:33:22;100586.44;;;7.33;100.00
14232;BME280;7200;52.194;9.900;2023-02-02T14:41:18;100611.88;;;7.29;100.00
14232;BME280;7200;52.194;9.900;2023-02-02T14:44:06;100618.03;;;7.27;100.00
14232;BME280;7200;52.194;9.900;2023-02-02T14:46:37;100588.69;;;7.06;100.00
14232;BME280;7200;52.194;9.900;2023-02-02T14:51:30;100603.44;;;7.12;100.00
14232;BME280;7200;52.194;9.900;2023-02-02T14:54:02;100588.78;;;7.01;100.00
14232;BME280;7200;52.194;9.900;2023-02-02T14:56:41;100610.50;;;7.08;100.00
14232;BME280;7200;52.194;9.900;2023-02-02T14:59:19;100620.16;;;7.06;100.00
14232;BME280;7200;52.194;9.900;2023-02-02T15:02:01;100669.63;;;7.28;100.00